createdAt,value
2023-05-19T00:02:21.094Z,8.80
2023-05-19T00:05:11.664Z,8.80
2023-05-19T00:08:00.798Z,8.70
2023-05-19T00:10:49.279Z,8.70
2023-05-19T00:13:37.162Z,8.60
2023-05-19T00:16:25.467Z,8.80
2023-05-19T00:19:13.522Z,8.60
2023-05-19T00:22:02.777Z,8.60
2023-05-19T00:24:50.356Z,8.60
2023-05-19T00:27:38.452Z,8.50
2023-05-19T00:30:25.958Z,8.50
2023-05-19T00:33:13.487Z,8.50
2023-05-19T00:36:02.971Z,8.40
2023-05-19T00:38:52.066Z,8.40
2023-05-19T00:41:39.194Z,8.40
2023-05-19T00:44:26.675Z,8.30
2023-05-19T00:47:14.301Z,8.30
2023-05-19T00:50:01.715Z,8.20
2023-05-19T00:52:49.150Z,8.30
2023-05-19T00:55:40.540Z,8.20
2023-05-19T00:58:29.393Z,8.10
2023-05-19T01:01:17.477Z,8.00
2023-05-19T01:04:05.735Z,8.00
2023-05-19T01:06:55.131Z,8.00
2023-05-19T01:09:42.758Z,7.90
2023-05-19T01:12:32.139Z,7.90
2023-05-19T01:15:19.532Z,7.80
2023-05-19T01:18:11.319Z,7.80
2023-05-19T01:21:05.169Z,7.80
2023-05-19T01:23:57.156Z,7.70
2023-05-19T01:27:00.747Z,7.70
2023-05-19T01:29:59.466Z,7.70
2023-05-19T01:32:49.339Z,7.70
2023-05-19T01:35:37.601Z,7.70
2023-05-19T01:38:26.526Z,7.60
2023-05-19T01:41:14.184Z,7.60
2023-05-19T01:44:01.548Z,7.60
2023-05-19T01:46:49.850Z,7.50
2023-05-19T01:49:38.449Z,7.50
2023-05-19T01:52:26.583Z,8.00
2023-05-19T01:55:14.121Z,7.50
2023-05-19T01:58:04.248Z,7.50
2023-05-19T02:00:55.566Z,7.50
2023-05-19T02:03:49.410Z,7.40
2023-05-19T02:06:42.961Z,7.40
2023-05-19T02:09:39.786Z,7.30
2023-05-19T02:12:29.769Z,7.30
2023-05-19T02:15:17.689Z,7.30
2023-05-19T02:18:05.956Z,7.20
2023-05-19T02:20:53.256Z,7.20
2023-05-19T02:23:42.500Z,7.20
2023-05-19T02:26:29.966Z,7.10
2023-05-19T02:29:17.372Z,7.10
2023-05-19T02:32:05.503Z,7.10
2023-05-19T02:34:53.378Z,7.10
2023-05-19T02:37:40.795Z,7.00
2023-05-19T02:40:30.886Z,7.00
2023-05-19T02:43:18.515Z,7.00
2023-05-19T02:46:05.985Z,6.90
2023-05-19T02:48:54.060Z,6.90
2023-05-19T02:51:41.693Z,6.90
2023-05-19T02:54:29.226Z,6.90
2023-05-19T02:57:18.056Z,6.80
2023-05-19T03:00:06.087Z,6.80
2023-05-19T03:02:54.382Z,6.70
2023-05-19T03:05:42.936Z,6.70
2023-05-19T03:08:30.733Z,6.70
2023-05-19T03:11:18.508Z,6.70
2023-05-19T03:14:10.675Z,6.70
2023-05-19T03:16:58.209Z,6.60
2023-05-19T03:19:46.061Z,6.60
2023-05-19T03:22:34.291Z,6.50
2023-05-19T03:25:21.741Z,6.50
2023-05-19T03:28:09.298Z,6.40
2023-05-19T03:30:58.262Z,6.40
2023-05-19T03:33:49.511Z,6.40
2023-05-19T03:36:39.435Z,6.50
2023-05-19T03:39:30.970Z,6.30
2023-05-19T03:42:18.409Z,6.30
2023-05-19T03:45:06.254Z,6.30
2023-05-19T03:47:55.449Z,6.30
2023-05-19T03:51:17.787Z,6.30
2023-05-19T03:54:06.917Z,6.10
2023-05-19T03:56:54.978Z,6.40
2023-05-19T03:59:43.974Z,6.40
2023-05-19T04:02:31.749Z,6.40
2023-05-19T04:05:20.648Z,6.20
2023-05-19T04:08:08.279Z,6.50
2023-05-19T04:10:55.726Z,6.60
2023-05-19T04:13:45.022Z,7.00
2023-05-19T04:16:32.881Z,9.30
2023-05-19T04:19:20.187Z,6.60
2023-05-19T04:22:09.966Z,6.60
2023-05-19T04:24:57.163Z,6.70
2023-05-19T04:27:44.831Z,6.70
2023-05-19T04:30:32.391Z,6.60
2023-05-19T04:33:20.199Z,6.60
2023-05-19T04:36:10.712Z,6.60
2023-05-19T04:39:06.408Z,6.60
2023-05-19T04:41:54.261Z,6.60
2023-05-19T04:44:41.557Z,6.70
2023-05-19T04:47:30.266Z,6.70
2023-05-19T04:50:18.432Z,6.70
2023-05-19T04:53:06.095Z,6.80
2023-05-19T04:55:55.608Z,6.80
2023-05-19T04:58:44.932Z,6.80
2023-05-19T05:01:33.168Z,6.90
2023-05-19T05:04:21.843Z,6.90
2023-05-19T05:07:10.723Z,6.90
2023-05-19T05:09:59.109Z,7.00
2023-05-19T05:12:49.186Z,7.10
2023-05-19T05:15:36.901Z,8.20
2023-05-19T05:18:24.422Z,7.10
2023-05-19T05:21:12.524Z,7.30
2023-05-19T05:24:00.992Z,7.40
2023-05-19T05:26:52.219Z,7.50
2023-05-19T05:29:41.422Z,6.80
2023-05-19T05:32:30.243Z,7.80
2023-05-19T05:35:17.917Z,7.80
2023-05-19T05:38:06.615Z,7.90
2023-05-19T05:40:55.413Z,7.90
2023-05-19T05:43:42.933Z,8.00
2023-05-19T05:46:33.345Z,8.10
2023-05-19T05:49:21.748Z,8.20
2023-05-19T05:52:12.472Z,8.30
2023-05-19T05:55:05.371Z,8.40
2023-05-19T05:57:54.105Z,8.50
2023-05-19T06:00:43.579Z,7.10
2023-05-19T06:03:32.247Z,8.70
2023-05-19T06:06:24.612Z,8.70
2023-05-19T06:09:13.496Z,8.70
2023-05-19T06:12:01.335Z,9.10
2023-05-19T06:14:53.629Z,9.30
2023-05-19T06:18:03.274Z,9.40
2023-05-19T06:20:52.235Z,9.60
2023-05-19T06:23:40.274Z,9.70
2023-05-19T06:26:30.288Z,9.70
2023-05-19T06:29:18.327Z,9.70
2023-05-19T06:32:06.419Z,9.70
2023-05-19T06:34:55.114Z,9.70
2023-05-19T06:37:45.780Z,9.70
2023-05-19T06:40:34.315Z,9.80
2023-05-19T06:43:22.052Z,9.90
2023-05-19T06:46:18.075Z,9.80
2023-05-19T06:49:05.327Z,9.80
2023-05-19T06:51:57.846Z,9.80
2023-05-19T06:54:47.394Z,9.90
2023-05-19T06:57:34.994Z,10.10
2023-05-19T07:00:23.962Z,10.90
2023-05-19T07:03:14.129Z,10.20
2023-05-19T07:06:01.774Z,10.30
2023-05-19T07:08:49.516Z,10.40
2023-05-19T07:11:39.925Z,10.40
2023-05-19T07:14:28.628Z,10.50
2023-05-19T07:17:18.413Z,10.70
2023-05-19T07:20:10.097Z,10.80
2023-05-19T07:22:57.648Z,10.90
2023-05-19T07:25:45.381Z,11.00
2023-05-19T07:28:35.792Z,11.10
2023-05-19T07:31:23.554Z,11.30
2023-05-19T07:34:11.595Z,11.20
2023-05-19T07:36:59.601Z,11.40
2023-05-19T07:39:46.969Z,11.50
2023-05-19T07:42:34.561Z,11.80
2023-05-19T07:45:23.560Z,11.90
2023-05-19T07:48:11.177Z,9.50
2023-05-19T07:50:59.480Z,12.20
2023-05-19T07:53:48.295Z,12.20
2023-05-19T07:56:36.112Z,12.40
2023-05-19T07:59:23.441Z,12.50
2023-05-19T08:02:13.157Z,12.60
2023-05-19T08:05:01.467Z,14.50
2023-05-19T08:07:49.759Z,12.90
2023-05-19T08:10:37.948Z,13.00
2023-05-19T08:13:25.445Z,13.10
2023-05-19T08:16:13.284Z,13.30
2023-05-19T08:19:04.970Z,13.30
2023-05-19T08:21:53.283Z,13.20
2023-05-19T08:24:43.324Z,13.20
2023-05-19T08:27:34.001Z,13.30
2023-05-19T08:30:22.047Z,13.40
2023-05-19T08:33:09.748Z,13.70
2023-05-19T08:35:59.333Z,13.80
2023-05-19T08:38:47.062Z,14.00
2023-05-19T08:41:34.861Z,14.00
2023-05-19T08:44:23.130Z,14.20
2023-05-19T08:47:14.518Z,14.20
2023-05-19T08:50:05.090Z,14.20
2023-05-19T08:52:55.257Z,14.20
2023-05-19T08:55:45.494Z,14.40
2023-05-19T08:58:33.707Z,14.60
2023-05-19T09:01:21.693Z,14.70
2023-05-19T09:04:10.635Z,14.60
2023-05-19T09:07:02.946Z,14.80
2023-05-19T09:09:51.887Z,14.90
2023-05-19T09:12:39.941Z,14.90
2023-05-19T09:15:28.186Z,15.20
2023-05-19T09:18:19.234Z,14.90
2023-05-19T09:21:07.578Z,15.00
2023-05-19T09:23:56.174Z,15.20
2023-05-19T09:26:48.062Z,15.40
2023-05-19T09:29:36.357Z,15.60
2023-05-19T09:32:27.361Z,15.60
2023-05-19T09:35:17.508Z,15.60
2023-05-19T09:38:05.007Z,15.70
2023-05-19T09:40:52.891Z,15.70
2023-05-19T09:43:43.036Z,15.80
2023-05-19T09:46:32.541Z,15.70
2023-05-19T09:49:20.892Z,15.70
2023-05-19T09:52:11.164Z,15.80
2023-05-19T09:55:00.389Z,16.10
2023-05-19T09:57:48.268Z,17.00
2023-05-19T10:00:37.382Z,16.40
2023-05-19T10:03:27.391Z,16.60
2023-05-19T10:06:18.079Z,16.50
2023-05-19T10:09:06.715Z,16.20
2023-05-19T10:11:54.993Z,17.10
2023-05-19T10:14:43.000Z,16.00
2023-05-19T10:17:34.138Z,16.10
2023-05-19T10:20:21.705Z,16.20
2023-05-19T10:23:09.302Z,16.20
2023-05-19T10:25:58.472Z,16.30
2023-05-19T10:28:47.998Z,16.80
2023-05-19T10:31:36.989Z,17.00
2023-05-19T10:34:44.695Z,17.60
2023-05-19T10:37:37.831Z,17.30
2023-05-19T10:40:29.180Z,17.50
2023-05-19T10:43:18.626Z,17.80
2023-05-19T10:46:11.078Z,17.10
2023-05-19T10:48:58.611Z,17.30
2023-05-19T10:51:51.164Z,16.90
2023-05-19T10:54:43.633Z,15.80
2023-05-19T10:57:33.608Z,17.30
2023-05-19T11:00:31.618Z,17.40
2023-05-19T11:06:19.652Z,17.60
2023-05-19T11:09:15.924Z,17.70
2023-05-19T11:12:04.613Z,18.00
2023-05-19T11:14:53.795Z,17.60
2023-05-19T11:17:42.266Z,17.70
2023-05-19T11:20:30.569Z,18.00
2023-05-19T11:23:19.014Z,17.80
2023-05-19T11:26:08.523Z,18.70
2023-05-19T11:28:55.994Z,18.30
2023-05-19T11:31:48.851Z,18.30
2023-05-19T11:34:39.370Z,18.20
2023-05-19T11:37:28.899Z,17.70
2023-05-19T11:40:17.086Z,17.90
2023-05-19T11:43:08.450Z,17.90
2023-05-19T11:45:57.297Z,17.80
2023-05-19T11:48:48.644Z,18.00
2023-05-19T11:51:38.520Z,17.90
2023-05-19T11:54:36.717Z,17.70
2023-05-19T11:57:24.253Z,18.00
2023-05-19T12:00:15.377Z,17.90
2023-05-19T12:03:04.328Z,18.20
2023-05-19T12:05:53.347Z,19.20
2023-05-19T12:08:41.668Z,18.20
2023-05-19T12:11:30.149Z,18.40
2023-05-19T12:14:19.234Z,18.40
2023-05-19T12:17:15.250Z,18.70
2023-05-19T12:20:04.953Z,19.40
2023-05-19T12:22:53.028Z,18.80
2023-05-19T12:25:41.327Z,19.10
2023-05-19T12:28:31.263Z,19.10
2023-05-19T12:31:19.083Z,19.30
2023-05-19T12:34:09.452Z,18.90
2023-05-19T12:37:00.884Z,18.80
2023-05-19T12:39:50.303Z,19.30
2023-05-19T12:42:38.182Z,18.60
2023-05-19T12:45:28.573Z,18.60
2023-05-19T12:48:17.417Z,18.60
2023-05-19T12:51:08.797Z,18.70
2023-05-19T12:53:57.317Z,20.10
2023-05-19T12:56:53.025Z,18.80
2023-05-19T12:59:43.896Z,18.70
2023-05-19T13:02:32.334Z,18.80
2023-05-19T13:05:23.266Z,19.00
2023-05-19T13:08:17.288Z,19.20
2023-05-19T13:11:05.154Z,19.20
2023-05-19T13:13:53.452Z,18.90
2023-05-19T13:16:41.556Z,19.00
2023-05-19T13:19:30.438Z,19.30
2023-05-19T13:22:18.161Z,19.30
2023-05-19T13:25:08.428Z,19.30
2023-05-19T13:27:57.037Z,19.40
2023-05-19T13:30:54.238Z,19.20
2023-05-19T13:33:42.672Z,19.10
2023-05-19T13:36:33.073Z,19.20
2023-05-19T13:39:20.908Z,19.20
2023-05-19T13:42:15.236Z,18.50
2023-05-19T13:45:10.878Z,17.40
2023-05-19T13:47:59.039Z,19.40
2023-05-19T13:50:51.240Z,19.40
2023-05-19T13:53:39.716Z,19.50
2023-05-19T13:56:32.606Z,19.60
2023-05-19T13:59:22.017Z,20.10
2023-05-19T14:02:10.826Z,20.80
2023-05-19T14:04:58.595Z,19.30
2023-05-19T14:07:46.901Z,19.30
2023-05-19T14:10:37.275Z,19.30
2023-05-19T14:16:17.542Z,19.30
2023-05-19T14:19:06.658Z,19.60
2023-05-19T14:21:56.875Z,19.30
2023-05-19T14:24:44.611Z,19.50
2023-05-19T14:27:35.301Z,19.80
2023-05-19T14:30:28.226Z,19.80
2023-05-19T14:33:23.536Z,19.70
2023-05-19T14:36:17.860Z,20.60
2023-05-19T14:39:06.172Z,19.50
2023-05-19T14:42:00.273Z,19.40
2023-05-19T14:44:48.664Z,19.50
2023-05-19T14:47:36.498Z,19.50
2023-05-19T14:50:28.577Z,19.30
2023-05-19T14:53:19.840Z,19.60
2023-05-19T14:56:08.600Z,19.60
2023-05-19T14:58:56.774Z,19.80
2023-05-19T15:01:44.272Z,19.80
2023-05-19T15:04:32.770Z,19.80
2023-05-19T15:07:22.773Z,19.80
2023-05-19T15:10:13.760Z,19.90
2023-05-19T15:13:04.680Z,19.80
2023-05-19T15:16:08.445Z,19.70
2023-05-19T15:19:03.434Z,19.50
2023-05-19T15:21:51.653Z,19.70
2023-05-19T15:24:41.488Z,19.90
2023-05-19T15:27:31.171Z,20.40
2023-05-19T15:30:20.854Z,20.00
2023-05-19T15:33:09.096Z,20.10
2023-05-19T15:35:59.923Z,20.30
2023-05-19T15:38:51.930Z,19.60
2023-05-19T15:41:40.992Z,19.90
2023-05-19T15:44:30.722Z,19.60
2023-05-19T15:47:19.319Z,19.40
2023-05-19T15:50:10.984Z,19.70
2023-05-19T15:52:58.629Z,19.80
2023-05-19T15:55:48.518Z,19.80
2023-05-19T15:58:40.409Z,19.80
2023-05-19T16:01:30.116Z,19.40
2023-05-19T16:04:20.182Z,19.20
2023-05-19T16:07:08.426Z,19.50
2023-05-19T16:09:56.104Z,19.50
2023-05-19T16:12:44.236Z,19.20
2023-05-19T16:15:33.451Z,20.10
2023-05-19T16:18:21.445Z,20.10
2023-05-19T16:21:09.177Z,20.00
2023-05-19T16:24:00.313Z,20.00
2023-05-19T16:26:48.865Z,20.40
2023-05-19T16:29:36.338Z,20.00
2023-05-19T16:32:25.149Z,19.90
2023-05-19T16:35:15.238Z,19.70
2023-05-19T16:38:03.417Z,20.70
2023-05-19T16:40:52.105Z,19.70
2023-05-19T16:43:42.933Z,19.80
2023-05-19T16:46:31.661Z,19.80
2023-05-19T16:49:21.029Z,19.60
2023-05-19T16:52:09.372Z,19.70
2023-05-19T16:54:59.618Z,19.40
2023-05-19T16:57:47.303Z,19.50
2023-05-19T17:00:35.146Z,17.80
2023-05-19T17:03:23.039Z,19.10
2023-05-19T17:06:12.698Z,19.30
2023-05-19T17:09:01.386Z,19.40
2023-05-19T17:11:49.345Z,19.30
2023-05-19T17:14:37.051Z,19.30
2023-05-19T17:17:27.870Z,19.40
2023-05-19T17:20:16.441Z,19.60
2023-05-19T17:23:05.427Z,19.70
2023-05-19T17:25:55.164Z,19.20
2023-05-19T17:28:43.171Z,19.40
2023-05-19T17:31:30.612Z,19.30
2023-05-19T17:34:18.673Z,19.30
2023-05-19T17:37:06.657Z,19.40
2023-05-19T17:39:56.271Z,19.50
2023-05-19T17:42:44.723Z,19.30
2023-05-19T17:45:32.210Z,18.80
2023-05-19T17:48:21.399Z,18.70
2023-05-19T17:51:11.680Z,18.70
2023-05-19T17:54:00.353Z,18.50
2023-05-19T17:56:52.967Z,18.80
2023-05-19T17:59:41.116Z,17.80
2023-05-19T18:02:29.947Z,18.40
2023-05-19T18:05:18.769Z,18.30
2023-05-19T18:08:09.551Z,18.30
2023-05-19T18:11:00.548Z,18.20
2023-05-19T18:13:49.551Z,18.10
2023-05-19T18:16:37.330Z,18.10
2023-05-19T18:19:25.464Z,18.00
2023-05-19T18:22:14.902Z,17.90
2023-05-19T18:25:03.049Z,17.50
2023-05-19T18:27:51.577Z,17.80
2023-05-19T18:30:41.126Z,17.80
2023-05-19T18:33:31.333Z,17.70
2023-05-19T18:36:19.637Z,17.70
2023-05-19T18:39:07.532Z,17.50
2023-05-19T18:41:55.772Z,17.80
2023-05-19T18:44:46.885Z,17.50
2023-05-19T18:47:35.866Z,17.40
2023-05-19T18:50:23.330Z,17.40
2023-05-19T18:53:11.417Z,17.30
2023-05-19T18:55:59.714Z,17.20
2023-05-19T18:58:47.313Z,17.10
2023-05-19T19:01:35.735Z,17.10
2023-05-19T19:04:24.690Z,17.00
2023-05-19T19:07:12.985Z,17.00
2023-05-19T19:10:00.986Z,16.90
2023-05-19T19:12:53.444Z,16.80
2023-05-19T19:15:41.024Z,16.80
2023-05-19T19:18:28.734Z,16.70
2023-05-19T19:21:19.901Z,16.60
2023-05-19T19:24:08.025Z,16.50
2023-05-19T19:26:55.740Z,16.40
2023-05-19T19:29:43.399Z,16.20
2023-05-19T19:32:32.633Z,16.20
2023-05-19T19:35:20.190Z,16.10
2023-05-19T19:38:11.988Z,16.10
2023-05-19T19:40:59.880Z,15.90
2023-05-19T19:43:47.785Z,15.80
2023-05-19T19:46:35.440Z,15.80
2023-05-19T19:49:23.053Z,15.80
2023-05-19T19:52:10.985Z,15.80
2023-05-19T19:55:00.165Z,15.80
2023-05-19T19:57:49.521Z,15.60
2023-05-19T20:00:37.616Z,15.90
2023-05-19T20:03:25.503Z,15.60
2023-05-19T20:06:14.313Z,15.50
2023-05-19T20:09:01.545Z,15.50
2023-05-19T20:11:53.009Z,15.40
2023-05-19T20:14:40.371Z,15.40
2023-05-19T20:17:27.902Z,15.30
2023-05-19T20:20:16.417Z,15.30
2023-05-19T20:23:03.618Z,15.20
2023-05-19T20:26:10.187Z,15.20
2023-05-19T20:29:00.222Z,15.10
2023-05-19T20:31:47.721Z,14.00
2023-05-19T20:34:35.921Z,15.10
2023-05-19T20:37:23.565Z,15.10
2023-05-19T20:40:11.617Z,14.90
2023-05-19T20:42:59.360Z,14.90
2023-05-19T20:45:48.761Z,14.80
2023-05-19T20:48:36.844Z,14.70
2023-05-19T20:51:25.375Z,14.60
2023-05-19T20:54:13.519Z,14.50
2023-05-19T20:57:06.490Z,14.50
2023-05-19T20:59:54.369Z,14.40
2023-05-19T21:02:44.443Z,14.30
2023-05-19T21:05:32.796Z,14.30
2023-05-19T21:08:20.634Z,14.20
2023-05-19T21:11:10.569Z,14.20
2023-05-19T21:13:58.706Z,14.20
2023-05-19T21:16:48.753Z,14.30
2023-05-19T21:19:39.550Z,14.10
2023-05-19T21:22:28.092Z,14.10
2023-05-19T21:25:17.162Z,14.00
2023-05-19T21:28:04.626Z,14.00
2023-05-19T21:30:52.405Z,13.90
2023-05-19T21:33:39.916Z,14.00
2023-05-19T21:36:29.226Z,13.80
2023-05-19T21:39:17.351Z,13.80
2023-05-19T21:42:06.498Z,13.70
2023-05-19T21:44:54.011Z,13.80
2023-05-19T21:47:41.802Z,13.70
2023-05-19T21:50:29.553Z,13.70
2023-05-19T21:53:18.833Z,13.60
2023-05-19T21:56:07.332Z,13.60
2023-05-19T21:58:55.041Z,13.50
2023-05-19T22:01:43.074Z,13.50
2023-05-19T22:04:31.645Z,13.50
2023-05-19T22:07:26.844Z,13.40
2023-05-19T22:10:16.131Z,13.30
2023-05-19T22:13:04.082Z,13.40
2023-05-19T22:15:53.966Z,13.30
2023-05-19T22:18:41.817Z,13.20
2023-05-19T22:21:28.994Z,13.20
2023-05-19T22:24:18.577Z,13.00
2023-05-19T22:27:09.060Z,13.00
2023-05-19T22:29:56.855Z,12.90
2023-05-19T22:32:44.554Z,12.80
2023-05-19T22:35:35.148Z,12.70
2023-05-19T22:38:22.951Z,12.70
2023-05-19T22:41:10.768Z,12.60
2023-05-19T22:44:00.141Z,12.60
2023-05-19T22:46:47.585Z,12.60
2023-05-19T22:49:35.928Z,12.60
2023-05-19T22:52:23.828Z,12.50
2023-05-19T22:55:11.353Z,13.90
2023-05-19T22:58:00.391Z,12.30
2023-05-19T23:00:49.266Z,14.40
2023-05-19T23:03:36.791Z,12.30
2023-05-19T23:06:24.692Z,12.00
2023-05-19T23:09:13.245Z,12.30
2023-05-19T23:12:01.039Z,12.40
2023-05-19T23:14:49.238Z,12.40
2023-05-19T23:17:38.394Z,12.40
2023-05-19T23:20:25.820Z,12.30
2023-05-19T23:23:13.351Z,12.30
2023-05-19T23:26:01.321Z,12.30
2023-05-19T23:28:49.239Z,12.30
2023-05-19T23:31:37.456Z,12.20
2023-05-19T23:34:26.279Z,12.20
2023-05-19T23:37:14.584Z,12.20
2023-05-19T23:40:02.893Z,12.20
2023-05-19T23:42:50.093Z,12.20
2023-05-19T23:45:38.037Z,12.20
2023-05-19T23:48:26.190Z,12.20
2023-05-19T23:51:14.931Z,12.20
2023-05-19T23:54:03.400Z,12.20
2023-05-19T23:56:51.492Z,12.10
2023-05-19T23:59:39.542Z,12.10
